Time;durP1;ratioP1;P1;durP2;ratioP2;P2;SDS_P1;SDS_P2;PMS_P1;PMS_P2;Temp;Humidity;BMP_temperature;BMP_pressure;BME280_temperature;BME280_humidity;BME280_pressure;Samples;Min_cycle;Max_cycle;Signal;HPM_P1;HPM_P2
2023/07/30 00:02:02;;;;;;;3.10;2.40;;;23.90;78.50;;;;;;5023019;28;20269;-43
2023/07/30 00:04:27;;;;;;;2.80;2.17;;;23.90;77.70;;;;;;5029992;28;20684;-47
2023/07/30 00:06:53;;;;;;;2.10;2.00;;;24.00;77.20;;;;;;5023038;28;20724;-44
2023/07/30 00:09:18;;;;;;;2.00;1.90;;;23.90;76.80;;;;;;5018333;28;20534;-44
2023/07/30 00:11:44;;;;;;;2.17;1.93;;;24.00;75.10;;;;;;5021725;28;20194;-44
2023/07/30 00:14:10;;;;;;;3.43;1.83;;;24.00;74.20;;;;;;5025390;28;20199;-44
2023/07/30 00:16:35;;;;;;;3.17;1.40;;;23.60;71.80;;;;;;5017868;28;20232;-44
2023/07/30 00:19:01;;;;;;;1.60;1.50;;;23.30;72.70;;;;;;5024413;28;20194;-43
2023/07/30 00:21:26;;;;;;;2.23;1.40;;;23.40;73.00;;;;;;5023623;28;20625;-45
2023/07/30 00:23:52;;;;;;;1.33;1.20;;;23.50;72.40;;;;;;5018015;28;20201;-44
2023/07/30 00:26:18;;;;;;;1.57;1.10;;;23.60;71.80;;;;;;5024976;28;20196;-43
2023/07/30 00:28:43;;;;;;;1.97;1.53;;;23.70;71.20;;;;;;5026925;28;20232;-43
2023/07/30 00:31:09;;;;;;;7.80;1.57;;;23.80;71.10;;;;;;5015700;28;20480;-43
2023/07/30 00:33:34;;;;;;;1.43;1.33;;;23.70;70.80;;;;;;5014184;28;20591;-43
2023/07/30 00:36:00;;;;;;;2.43;1.33;;;23.70;70.70;;;;;;5019705;28;20685;-45
2023/07/30 00:38:26;;;;;;;1.30;1.10;;;23.70;70.70;;;;;;5025361;28;20587;-44
2023/07/30 00:40:51;;;;;;;1.23;1.10;;;23.70;70.80;;;;;;5025851;28;20189;-43
2023/07/30 00:43:17;;;;;;;2.10;1.90;;;23.70;70.70;;;;;;5028868;28;20227;-45
2023/07/30 00:45:44;;;;;;;2.00;1.37;;;23.70;70.70;;;;;;5021453;28;20216;-44
2023/07/30 00:48:13;;;;;;;1.40;1.30;;;23.80;71.30;;;;;;5021206;28;20210;-43
2023/07/30 00:50:40;;;;;;;1.20;1.00;;;23.80;71.70;;;;;;5023076;28;20459;-43
2023/07/30 00:53:07;;;;;;;1.37;1.27;;;23.80;72.10;;;;;;5032276;28;20478;-45
2023/07/30 00:55:33;;;;;;;1.67;1.40;;;23.70;72.00;;;;;;5024466;28;20487;-44
2023/07/30 00:57:59;;;;;;;1.30;1.20;;;23.70;71.70;;;;;;5021452;28;20437;-46
2023/07/30 01:00:26;;;;;;;1.40;1.30;;;23.70;71.40;;;;;;5013692;28;20198;-45
2023/07/30 01:02:52;;;;;;;1.70;1.60;;;23.70;70.80;;;;;;5017801;28;20462;-44
2023/07/30 01:05:18;;;;;;;2.50;1.50;;;23.50;70.70;;;;;;5020089;28;20443;-43
2023/07/30 01:07:43;;;;;;;4.30;1.10;;;23.50;71.20;;;;;;5028065;28;20255;-44
2023/07/30 01:10:09;;;;;;;1.43;1.30;;;23.50;71.50;;;;;;5016692;28;21149;-44
2023/07/30 01:12:36;;;;;;;1.43;1.27;;;23.60;71.70;;;;;;5015919;28;20203;-43
2023/07/30 01:15:04;;;;;;;1.47;1.37;;;23.60;71.60;;;;;;5017486;28;20301;-45
2023/07/30 01:17:29;;;;;;;2.47;1.50;;;23.70;71.30;;;;;;5019842;28;20916;-43
2023/07/30 01:19:55;;;;;;;1.53;1.43;;;23.60;70.70;;;;;;5025611;28;20478;-46
2023/07/30 01:22:22;;;;;;;1.50;1.20;;;23.60;71.10;;;;;;5020381;28;20193;-43
2023/07/30 01:24:48;;;;;;;1.80;1.63;;;23.60;70.90;;;;;;5016197;28;20528;-44
2023/07/30 01:27:31;;;;;;;2.10;1.87;;;23.60;71.10;;;;;;5018940;28;20447;-43
2023/07/30 01:30:21;;;;;;;1.40;1.30;;;23.60;71.30;;;;;;5021467;28;20432;-43
2023/07/30 01:32:49;;;;;;;4.83;1.57;;;23.70;71.60;;;;;;5019985;28;20550;-44
2023/07/30 01:35:15;;;;;;;2.40;1.40;;;23.70;71.70;;;;;;5018058;28;21885;-43
2023/07/30 01:37:43;;;;;;;2.87;1.93;;;23.70;71.80;;;;;;5017455;28;20444;-43
2023/07/30 01:40:09;;;;;;;1.50;1.40;;;23.70;72.20;;;;;;5018131;28;20437;-45
2023/07/30 01:42:36;;;;;;;1.57;1.47;;;23.70;72.80;;;;;;5015493;28;20474;-44
2023/07/30 01:45:02;;;;;;;1.63;1.40;;;23.70;73.20;;;;;;5018463;28;20451;-49
2023/07/30 01:47:27;;;;;;;1.60;1.50;;;23.70;73.50;;;;;;5018004;28;20449;-44
2023/07/30 01:49:53;;;;;;;1.70;1.43;;;23.70;74.20;;;;;;5011225;28;20211;-45
2023/07/30 01:52:18;;;;;;;1.30;1.20;;;23.70;74.20;;;;;;5012180;28;20194;-43
2023/07/30 01:54:44;;;;;;;2.47;1.73;;;23.70;74.40;;;;;;5014651;28;20240;-43
2023/07/30 01:57:10;;;;;;;1.77;1.40;;;23.70;74.30;;;;;;5025517;28;20204;-48
2023/07/30 01:59:35;;;;;;;1.90;1.57;;;23.70;74.10;;;;;;5024062;28;20263;-45
2023/07/30 02:02:01;;;;;;;4.33;1.67;;;23.70;74.20;;;;;;5018317;28;20209;-43
2023/07/30 02:04:26;;;;;;;1.97;1.77;;;23.70;74.20;;;;;;5016006;28;20185;-43
2023/07/30 02:06:52;;;;;;;3.23;1.83;;;23.70;74.30;;;;;;5015728;28;20186;-44
2023/07/30 02:09:18;;;;;;;4.80;1.87;;;23.70;74.40;;;;;;5017414;28;20204;-44
2023/07/30 02:11:43;;;;;;;1.73;1.60;;;23.70;74.40;;;;;;5026388;28;20191;-46
2023/07/30 02:14:10;;;;;;;2.50;1.70;;;23.70;74.40;;;;;;5015137;28;20650;-44
2023/07/30 02:16:35;;;;;;;2.10;1.90;;;23.70;74.50;;;;;;5025788;28;20236;-43
2023/07/30 02:19:01;;;;;;;2.53;2.20;;;23.70;74.50;;;;;;5019715;28;20847;-44
2023/07/30 02:21:27;;;;;;;2.50;2.30;;;23.70;74.50;;;;;;5024680;28;20537;-44
2023/07/30 02:23:52;;;;;;;2.20;1.90;;;23.70;74.60;;;;;;5016601;28;20185;-45
2023/07/30 02:26:18;;;;;;;3.30;2.70;;;23.70;74.90;;;;;;5016175;28;20206;-44
2023/07/30 02:28:43;;;;;;;3.30;2.53;;;23.60;75.20;;;;;;5019399;28;20185;-43
2023/07/30 02:31:09;;;;;;;2.40;2.20;;;23.70;75.10;;;;;;5015883;28;20649;-45
2023/07/30 02:33:34;;;;;;;3.53;2.60;;;23.60;75.10;;;;;;5014183;28;20217;-44
2023/07/30 02:36:00;;;;;;;5.27;2.67;;;23.70;75.30;;;;;;5022227;28;20221;-43
2023/07/30 02:38:25;;;;;;;2.47;2.27;;;23.70;75.60;;;;;;5019018;28;20200;-44
2023/07/30 02:40:51;;;;;;;2.87;2.53;;;23.50;76.00;;;;;;5021034;28;20667;-43
2023/07/30 02:43:17;;;;;;;2.50;2.30;;;23.60;76.20;;;;;;5027329;28;20879;-43
2023/07/30 02:45:42;;;;;;;2.60;2.10;;;23.60;76.10;;;;;;5017176;28;20578;-44
2023/07/30 02:48:08;;;;;;;2.40;2.20;;;23.60;76.20;;;;;;5031015;28;20239;-44
2023/07/30 02:50:33;;;;;;;2.30;2.10;;;23.60;76.10;;;;;;5022470;28;20609;-43
2023/07/30 02:52:59;;;;;;;3.40;2.10;;;23.60;76.50;;;;;;5027071;28;20224;-44
2023/07/30 02:55:24;;;;;;;2.90;2.30;;;23.50;76.60;;;;;;5027892;28;20248;-45
2023/07/30 02:57:50;;;;;;;4.87;1.87;;;23.50;76.40;;;;;;5020754;28;20204;-43
2023/07/30 03:00:16;;;;;;;3.33;1.90;;;23.40;76.20;;;;;;5026717;28;20205;-44
2023/07/30 03:02:41;;;;;;;4.60;2.20;;;23.50;76.40;;;;;;5020422;28;20197;-43
2023/07/30 03:05:07;;;;;;;2.50;2.30;;;23.30;76.80;;;;;;5019649;28;20178;-44
2023/07/30 03:07:33;;;;;;;2.50;2.30;;;23.30;77.00;;;;;;5023865;28;20189;-43
2023/07/30 03:09:58;;;;;;;2.47;2.27;;;23.30;76.60;;;;;;5019788;28;20202;-44
2023/07/30 03:12:24;;;;;;;2.70;2.50;;;23.40;76.70;;;;;;5027487;28;20243;-46
2023/07/30 03:14:49;;;;;;;2.53;2.30;;;23.40;77.00;;;;;;5017749;28;20717;-45
2023/07/30 03:17:15;;;;;;;2.77;2.57;;;23.40;77.40;;;;;;5022806;28;20193;-46
2023/07/30 03:19:40;;;;;;;3.30;3.00;;;23.40;77.50;;;;;;5030492;28;20552;-43
2023/07/30 03:22:06;;;;;;;3.97;2.57;;;23.50;77.40;;;;;;5017847;28;20189;-43
2023/07/30 03:24:32;;;;;;;3.33;2.40;;;23.50;77.10;;;;;;5021609;28;20189;-45
2023/07/30 03:26:57;;;;;;;3.50;2.73;;;23.60;77.10;;;;;;5018141;28;20197;-43
2023/07/30 03:29:23;;;;;;;4.27;2.70;;;23.60;77.00;;;;;;5021544;28;20185;-45
2023/07/30 03:31:48;;;;;;;5.17;2.90;;;23.60;77.00;;;;;;5015787;28;20215;-44
2023/07/30 03:34:14;;;;;;;5.00;2.73;;;23.60;77.00;;;;;;5022919;28;20217;-43
2023/07/30 03:36:40;;;;;;;3.10;2.80;;;23.50;77.40;;;;;;5028372;28;20221;-43
2023/07/30 03:39:05;;;;;;;3.67;2.37;;;23.50;77.80;;;;;;5019248;28;20218;-44
2023/07/30 03:41:31;;;;;;;2.27;2.10;;;23.50;77.50;;;;;;5024071;28;20181;-46
2023/07/30 03:43:56;;;;;;;4.33;2.80;;;23.50;76.80;;;;;;5025166;28;20251;-43
2023/07/30 03:46:22;;;;;;;2.37;2.17;;;23.30;77.00;;;;;;5027737;28;20275;-43
2023/07/30 03:48:47;;;;;;;3.10;2.30;;;23.40;77.30;;;;;;5015338;28;20197;-44
2023/07/30 03:51:13;;;;;;;3.33;2.20;;;23.40;77.40;;;;;;5017443;28;20656;-47
2023/07/30 03:53:39;;;;;;;5.90;2.37;;;23.40;77.30;;;;;;5013766;28;20221;-44
2023/07/30 03:56:04;;;;;;;2.63;2.40;;;23.40;77.30;;;;;;5020868;28;20241;-43
2023/07/30 03:58:30;;;;;;;2.60;2.43;;;23.50;77.30;;;;;;5023526;28;20189;-43
2023/07/30 04:00:56;;;;;;;3.20;2.30;;;23.50;77.30;;;;;;5025935;28;20197;-44
2023/07/30 04:03:21;;;;;;;4.10;2.60;;;23.50;77.40;;;;;;5019969;28;20437;-44
2023/07/30 04:05:47;;;;;;;2.97;2.77;;;23.50;77.30;;;;;;5027016;28;20224;-43
2023/07/30 04:08:13;;;;;;;2.50;2.30;;;23.50;77.40;;;;;;5023697;28;20193;-44
2023/07/30 04:10:38;;;;;;;2.40;2.20;;;23.50;77.30;;;;;;5018495;28;20646;-45
2023/07/30 04:13:04;;;;;;;2.70;2.50;;;23.50;77.40;;;;;;5015636;28;20194;-44
2023/07/30 04:15:29;;;;;;;2.63;2.43;;;23.50;77.40;;;;;;5015838;28;20808;-46
2023/07/30 04:17:55;;;;;;;3.87;2.50;;;23.50;77.30;;;;;;5026241;28;20194;-44
2023/07/30 04:20:20;;;;;;;5.50;2.73;;;23.50;77.20;;;;;;5017259;28;20235;-47
2023/07/30 04:22:46;;;;;;;4.50;2.80;;;23.50;77.00;;;;;;5027721;28;20196;-44
2023/07/30 04:25:11;;;;;;;2.53;2.33;;;23.30;77.90;;;;;;5021424;28;20193;-45
2023/07/30 04:27:37;;;;;;;2.60;2.40;;;23.20;78.10;;;;;;5019154;28;21212;-44
2023/07/30 04:30:05;;;;;;;2.60;2.20;;;23.20;78.60;;;;;;5017101;28;20200;-46
2023/07/30 04:32:31;;;;;;;2.33;2.20;;;23.10;79.10;;;;;;5023235;28;20435;-44
2023/07/30 04:34:56;;;;;;;2.83;2.33;;;22.90;80.20;;;;;;5025053;28;20483;-45
2023/07/30 04:37:22;;;;;;;4.50;2.53;;;22.80;80.90;;;;;;5023527;28;20193;-43
2023/07/30 04:39:48;;;;;;;1.90;1.80;;;22.80;80.80;;;;;;5027182;28;20209;-46
2023/07/30 04:42:15;;;;;;;5.97;2.80;;;22.40;83.40;;;;;;5021527;28;20189;-43
2023/07/30 04:44:40;;;;;;;3.80;2.30;;;22.70;83.10;;;;;;5030730;28;20558;-43
2023/07/30 04:47:07;;;;;;;2.50;2.30;;;22.90;82.30;;;;;;5029280;28;20523;-43
2023/07/30 04:49:32;;;;;;;3.83;2.30;;;23.00;81.50;;;;;;5024349;28;20185;-44
2023/07/30 04:51:58;;;;;;;3.83;2.30;;;23.10;81.20;;;;;;5014448;28;20510;-45
2023/07/30 04:54:23;;;;;;;4.30;2.20;;;23.10;80.80;;;;;;5023084;28;20308;-48
2023/07/30 04:56:49;;;;;;;2.57;2.20;;;23.20;80.60;;;;;;5018589;28;20229;-46
2023/07/30 04:59:14;;;;;;;3.00;2.80;;;23.20;80.30;;;;;;5024756;28;20259;-43
2023/07/30 05:01:40;;;;;;;2.90;2.60;;;23.30;80.10;;;;;;5020308;28;20201;-44
2023/07/30 05:04:06;;;;;;;2.63;2.40;;;23.40;79.70;;;;;;5016265;28;20192;-44
2023/07/30 05:06:32;;;;;;;3.00;2.70;;;23.40;79.60;;;;;;5017401;28;20532;-44
2023/07/30 05:08:58;;;;;;;5.40;2.60;;;23.40;79.40;;;;;;5022637;28;20242;-43
2023/07/30 05:11:23;;;;;;;3.50;2.47;;;23.50;79.40;;;;;;5024271;28;20848;-44
2023/07/30 05:13:49;;;;;;;5.13;2.40;;;23.50;79.50;;;;;;5018877;28;20184;-43
2023/07/30 05:16:15;;;;;;;3.23;2.60;;;23.50;79.60;;;;;;5022001;28;20320;-44
2023/07/30 05:18:40;;;;;;;3.33;1.97;;;23.50;79.80;;;;;;5014641;28;20316;-43
2023/07/30 05:21:06;;;;;;;3.03;2.30;;;23.60;79.90;;;;;;5025706;28;20197;-48
2023/07/30 05:23:31;;;;;;;5.47;2.40;;;23.70;78.80;;;;;;5015763;28;20210;-47
2023/07/30 05:25:57;;;;;;;5.47;2.57;;;23.80;78.10;;;;;;5019257;28;20198;-45
2023/07/30 05:28:22;;;;;;;5.10;2.10;;;23.90;77.40;;;;;;5017997;28;20200;-43
2023/07/30 05:30:48;;;;;;;8.10;2.30;;;24.00;76.60;;;;;;5024486;28;20189;-46
2023/07/30 05:33:13;;;;;;;3.70;2.50;;;24.10;75.50;;;;;;5025970;28;20280;-43
2023/07/30 05:35:39;;;;;;;3.03;2.23;;;24.20;74.70;;;;;;5018206;28;20236;-45
2023/07/30 05:38:05;;;;;;;2.93;1.97;;;24.30;73.80;;;;;;5024534;28;20193;-45
2023/07/30 05:40:30;;;;;;;6.37;2.50;;;24.40;73.40;;;;;;5024415;28;20216;-43
2023/07/30 05:42:56;;;;;;;2.47;1.93;;;24.50;72.40;;;;;;5017053;28;20209;-43
2023/07/30 05:45:21;;;;;;;5.40;2.03;;;24.50;71.90;;;;;;5020010;28;20263;-43
2023/07/30 05:47:47;;;;;;;2.83;2.47;;;24.60;71.60;;;;;;5022661;28;20273;-43
2023/07/30 05:50:12;;;;;;;2.57;2.37;;;24.60;71.40;;;;;;5025567;28;20213;-44
2023/07/30 05:52:38;;;;;;;4.07;2.20;;;24.60;71.80;;;;;;5024247;28;20193;-44
2023/07/30 05:55:04;;;;;;;3.10;1.90;;;24.70;72.20;;;;;;5029299;28;20233;-44
2023/07/30 05:57:30;;;;;;;4.80;2.10;;;24.70;72.20;;;;;;5030099;28;20204;-46
2023/07/30 05:59:56;;;;;;;3.13;1.83;;;24.70;72.20;;;;;;5018966;28;20435;-43
2023/07/30 06:02:21;;;;;;;4.70;2.47;;;24.70;72.10;;;;;;5024176;28;20189;-43
2023/07/30 06:04:48;;;;;;;2.70;2.50;;;24.70;72.60;;;;;;5018896;28;20185;-44
2023/07/30 06:07:14;;;;;;;2.90;2.70;;;24.60;72.90;;;;;;5020795;28;20276;-43
2023/07/30 06:09:39;;;;;;;2.70;2.50;;;24.60;73.20;;;;;;5025817;28;21084;-45
2023/07/30 06:12:05;;;;;;;3.07;2.77;;;24.70;73.50;;;;;;5021732;28;20186;-44
2023/07/30 06:14:31;;;;;;;5.10;3.60;;;24.60;73.50;;;;;;5033761;28;20637;-43
2023/07/30 06:16:56;;;;;;;2.20;1.97;;;24.60;73.40;;;;;;5018791;28;20220;-43
2023/07/30 06:19:22;;;;;;;2.17;2.00;;;24.60;73.90;;;;;;5014248;28;20194;-43
2023/07/30 06:21:47;;;;;;;2.20;1.80;;;24.50;74.10;;;;;;5020793;28;20196;-44
2023/07/30 06:24:13;;;;;;;1.67;1.57;;;24.50;73.70;;;;;;5028708;28;20197;-43
2023/07/30 06:26:38;;;;;;;2.43;2.23;;;24.50;73.50;;;;;;5023557;28;20184;-43
2023/07/30 06:29:04;;;;;;;2.67;1.70;;;24.50;73.30;;;;;;5018143;28;20237;-44
2023/07/30 06:31:30;;;;;;;2.23;2.10;;;24.60;73.00;;;;;;5019439;28;20629;-44
2023/07/30 06:33:56;;;;;;;2.50;1.57;;;24.60;71.70;;;;;;5028267;28;20198;-45
2023/07/30 06:36:21;;;;;;;1.50;1.40;;;24.60;71.10;;;;;;5015776;28;20304;-43
2023/07/30 06:38:47;;;;;;;2.20;1.80;;;24.70;71.00;;;;;;5023136;28;20198;-43
2023/07/30 06:41:12;;;;;;;1.50;1.40;;;24.70;70.60;;;;;;5028254;28;20647;-43
2023/07/30 06:43:38;;;;;;;1.63;1.53;;;24.70;70.30;;;;;;5029758;28;20688;-45
2023/07/30 06:46:04;;;;;;;3.60;1.50;;;24.80;70.10;;;;;;5024758;28;20243;-48
2023/07/30 06:48:29;;;;;;;3.47;1.70;;;24.90;69.00;;;;;;5020171;28;20440;-45
2023/07/30 06:50:55;;;;;;;1.93;1.70;;;25.00;68.20;;;;;;5022893;28;20648;-44
2023/07/30 06:53:21;;;;;;;4.33;2.00;;;25.20;67.80;;;;;;5023486;28;20185;-48
2023/07/30 06:55:46;;;;;;;2.40;2.17;;;25.30;67.60;;;;;;5026320;28;20263;-48
2023/07/30 06:58:12;;;;;;;2.80;1.87;;;25.40;69.30;;;;;;5020595;28;20197;-46
2023/07/30 07:00:37;;;;;;;2.30;2.20;;;25.50;70.20;;;;;;5025163;28;20268;-44
2023/07/30 07:03:03;;;;;;;1.67;1.57;;;25.60;71.20;;;;;;5026486;28;20193;-45
2023/07/30 07:05:29;;;;;;;2.13;2.03;;;25.80;70.10;;;;;;5016117;28;20272;-48
2023/07/30 07:07:55;;;;;;;2.20;2.10;;;25.90;67.90;;;;;;5020735;28;20276;-45
2023/07/30 07:10:21;;;;;;;2.37;2.20;;;26.00;66.90;;;;;;5017120;28;20603;-44
2023/07/30 07:12:47;;;;;;;2.00;1.90;;;25.90;66.10;;;;;;5023675;28;20189;-49
2023/07/30 07:15:13;;;;;;;3.50;2.00;;;25.90;65.30;;;;;;5023706;28;20224;-49
2023/07/30 07:17:39;;;;;;;2.20;1.90;;;26.00;64.40;;;;;;5016570;28;20944;-44
2023/07/30 07:20:06;;;;;;;2.40;2.00;;;26.10;64.20;;;;;;5025325;28;20436;-45
2023/07/30 07:22:32;;;;;;;1.90;1.60;;;26.10;64.30;;;;;;5022911;28;20232;-47
2023/07/30 07:24:58;;;;;;;4.93;1.60;;;26.10;64.70;;;;;;5023981;28;20562;-45
2023/07/30 07:27:24;;;;;;;1.67;1.57;;;26.00;64.00;;;;;;5015291;28;20197;-44
2023/07/30 07:29:50;;;;;;;3.37;1.93;;;26.10;63.50;;;;;;5018918;28;20263;-50
2023/07/30 07:32:15;;;;;;;2.60;2.40;;;26.10;63.30;;;;;;5015543;28;20512;-45
2023/07/30 07:34:41;;;;;;;2.90;2.20;;;26.10;63.10;;;;;;5020156;28;20441;-44
2023/07/30 07:37:07;;;;;;;2.80;2.60;;;26.10;63.70;;;;;;5025144;28;20198;-46
2023/07/30 07:39:33;;;;;;;4.33;2.40;;;26.10;64.00;;;;;;5018700;28;20260;-44
2023/07/30 07:41:59;;;;;;;3.20;2.00;;;26.10;64.00;;;;;;5021514;28;20280;-44
2023/07/30 07:44:24;;;;;;;2.80;1.93;;;26.10;63.70;;;;;;5027701;28;20850;-45
2023/07/30 07:46:50;;;;;;;2.00;1.80;;;26.10;63.80;;;;;;5019196;28;20929;-46
2023/07/30 07:49:15;;;;;;;2.87;2.67;;;26.10;63.90;;;;;;5025467;28;20198;-44
2023/07/30 07:51:41;;;;;;;6.43;2.50;;;26.00;65.70;;;;;;5030061;28;20220;-43
2023/07/30 07:54:06;;;;;;;2.57;2.37;;;26.00;66.30;;;;;;5030565;28;20202;-44
2023/07/30 07:56:32;;;;;;;2.53;2.37;;;25.90;67.10;;;;;;5022568;28;20279;-48
2023/07/30 07:58:58;;;;;;;2.77;2.00;;;25.60;67.90;;;;;;5028746;28;20280;-44
2023/07/30 08:01:23;;;;;;;2.10;2.00;;;25.20;70.80;;;;;;5018410;28;20584;-44
2023/07/30 08:03:49;;;;;;;2.10;1.90;;;24.60;71.40;;;;;;5023121;28;20190;-46
2023/07/30 08:06:15;;;;;;;1.63;1.47;;;24.50;72.40;;;;;;5019543;28;20194;-44
2023/07/30 08:08:40;;;;;;;2.00;1.67;;;24.30;70.50;;;;;;5023218;28;20606;-44
2023/07/30 08:11:07;;;;;;;2.20;1.67;;;23.90;70.30;;;;;;5016542;28;20181;-44
2023/07/30 08:13:33;;;;;;;2.77;1.60;;;23.60;71.30;;;;;;5024668;28;20216;-44
2023/07/30 08:15:59;;;;;;;1.57;1.47;;;23.70;73.30;;;;;;5012351;28;21036;-45
2023/07/30 08:18:24;;;;;;;2.10;1.90;;;23.60;73.50;;;;;;5014283;28;20436;-44
2023/07/30 08:20:50;;;;;;;1.80;1.70;;;23.80;73.20;;;;;;5020493;28;20197;-44
2023/07/30 08:23:16;;;;;;;1.83;1.73;;;24.00;73.20;;;;;;5023875;28;20197;-44
2023/07/30 08:25:41;;;;;;;1.70;1.60;;;24.10;73.10;;;;;;5025540;28;20659;-44
2023/07/30 08:28:07;;;;;;;1.77;1.67;;;24.20;73.10;;;;;;5029993;28;20606;-47
2023/07/30 08:30:33;;;;;;;2.33;1.47;;;24.30;72.60;;;;;;5023406;28;20641;-44
2023/07/30 08:32:58;;;;;;;3.67;2.17;;;24.30;72.10;;;;;;5029083;28;20190;-46
2023/07/30 08:35:24;;;;;;;1.70;1.60;;;24.40;71.80;;;;;;5015627;28;20218;-45
2023/07/30 08:37:49;;;;;;;1.80;1.70;;;24.50;71.40;;;;;;5021689;28;20189;-44
2023/07/30 08:40:15;;;;;;;1.77;1.67;;;24.60;72.70;;;;;;5023894;28;20208;-44
2023/07/30 08:42:41;;;;;;;2.00;1.80;;;24.80;72.00;;;;;;5017104;28;20197;-44
2023/07/30 08:45:09;;;;;;;1.70;1.53;;;24.90;71.10;;;;;;5022963;28;20221;-47
2023/07/30 08:47:35;;;;;;;2.03;1.87;;;25.00;71.10;;;;;;5024702;28;20549;-44
2023/07/30 08:50:01;;;;;;;1.97;1.70;;;25.10;71.70;;;;;;5012368;28;20441;-45
2023/07/30 08:52:29;;;;;;;3.67;1.70;;;25.40;72.30;;;;;;5013348;28;20941;-45
2023/07/30 08:54:56;;;;;;;1.60;1.50;;;25.50;71.30;;;;;;5025418;28;20225;-44
2023/07/30 08:57:23;;;;;;;1.87;1.67;;;25.60;70.00;;;;;;5034157;28;20435;-45
2023/07/30 09:00:00;;;;;;;1.93;1.73;;;25.60;69.50;;;;;;5016739;28;20923;-46
2023/07/30 09:02:37;;;;;;;3.33;1.53;;;25.70;70.10;;;;;;5014616;28;20785;-44
2023/07/30 09:05:04;;;;;;;2.00;1.80;;;25.70;69.00;;;;;;5021962;28;20452;-44
2023/07/30 09:07:29;;;;;;;1.70;1.43;;;25.70;67.90;;;;;;5027548;28;20526;-44
2023/07/30 09:09:55;;;;;;;1.57;1.47;;;25.80;68.60;;;;;;5027805;28;20543;-46
2023/07/30 09:12:29;;;;;;;3.80;2.27;;;25.80;67.40;;;;;;5020692;28;20193;-44
2023/07/30 09:14:55;;;;;;;2.47;1.57;;;25.70;68.30;;;;;;5013244;28;20195;-46
2023/07/30 09:17:20;;;;;;;1.97;1.80;;;25.60;66.90;;;;;;5024087;28;20440;-45
2023/07/30 09:19:47;;;;;;;4.83;2.20;;;25.40;67.50;;;;;;5032388;28;20188;-45
2023/07/30 09:22:12;;;;;;;2.10;1.90;;;25.20;67.60;;;;;;5022166;28;20217;-44
2023/07/30 09:24:45;;;;;;;3.17;1.93;;;25.10;69.10;;;;;;5019003;28;20936;-45
2023/07/30 09:27:11;;;;;;;1.90;1.80;;;25.20;69.30;;;;;;5027813;28;20204;-44
2023/07/30 09:29:36;;;;;;;1.70;1.40;;;25.10;69.10;;;;;;5023425;28;20444;-48
2023/07/30 09:32:02;;;;;;;3.03;1.87;;;25.00;68.50;;;;;;5009663;28;20514;-46
2023/07/30 09:34:30;;;;;;;2.37;2.17;;;24.90;67.70;;;;;;5026651;28;20205;-49
2023/07/30 09:36:55;;;;;;;2.43;2.23;;;25.10;68.20;;;;;;5017133;28;20228;-45
2023/07/30 09:39:21;;;;;;;1.83;1.73;;;25.10;67.30;;;;;;5014008;28;20795;-46
2023/07/30 09:41:47;;;;;;;4.13;2.33;;;25.20;65.70;;;;;;5016129;28;20193;-45
2023/07/30 09:44:20;;;;;;;1.67;1.57;;;25.10;64.60;;;;;;5018331;28;20201;-46
2023/07/30 09:46:48;;;;;;;1.93;1.73;;;25.00;64.70;;;;;;5031273;28;20836;-48
2023/07/30 09:49:14;;;;;;;1.80;1.70;;;25.00;64.10;;;;;;5020128;28;20437;-47
2023/07/30 09:51:40;;;;;;;2.30;2.10;;;24.60;63.70;;;;;;5013407;28;20440;-46
2023/07/30 09:54:13;;;;;;;2.33;2.13;;;24.60;63.80;;;;;;5019572;28;20832;-47
2023/07/30 09:56:40;;;;;;;2.00;1.90;;;24.50;62.90;;;;;;5014943;28;20923;-47
2023/07/30 09:59:07;;;;;;;2.90;2.17;;;24.20;63.20;;;;;;5026600;28;20439;-47
2023/07/30 10:01:42;;;;;;;3.77;2.20;;;24.00;63.50;;;;;;5026294;28;20448;-48
2023/07/30 10:04:09;;;;;;;3.10;2.20;;;23.90;62.50;;;;;;5023647;28;20427;-45
2023/07/30 10:06:40;;;;;;;2.10;2.00;;;24.00;62.10;;;;;;5027781;28;20450;-45
2023/07/30 10:09:08;;;;;;;3.13;2.07;;;23.90;61.50;;;;;;5018727;28;21042;-46
2023/07/30 10:11:35;;;;;;;2.13;1.93;;;23.80;61.90;;;;;;5028203;28;20440;-46
2023/07/30 10:14:01;;;;;;;1.77;1.67;;;23.90;62.40;;;;;;5026280;28;20469;-46
2023/07/30 10:16:31;;;;;;;2.50;2.17;;;23.70;60.10;;;;;;5021814;28;21059;-47
2023/07/30 10:18:57;;;;;;;2.27;2.07;;;23.70;61.60;;;;;;5023929;28;20448;-45
2023/07/30 10:21:24;;;;;;;1.70;1.60;;;23.70;61.30;;;;;;5027109;28;20458;-47
2023/07/30 10:24:04;;;;;;;2.30;2.10;;;23.80;60.30;;;;;;5031178;28;20446;-45
2023/07/30 10:26:33;;;;;;;5.00;1.97;;;23.80;59.60;;;;;;5024236;28;20511;-48
2023/07/30 10:29:20;;;;;;;4.00;2.37;;;23.70;60.30;;;;;;5034610;28;20466;-46
2023/07/30 10:31:57;;;;;;;2.63;2.27;;;23.70;58.60;;;;;;5022813;28;20443;-46
2023/07/30 10:34:27;;;;;;;3.70;2.10;;;23.70;60.00;;;;;;5024855;28;20427;-48
2023/07/30 10:36:55;;;;;;;2.60;2.40;;;24.00;58.90;;;;;;5012859;28;20545;-46
2023/07/30 10:39:26;;;;;;;2.90;2.20;;;24.30;57.70;;;;;;5029358;28;20439;-45
2023/07/30 10:41:55;;;;;;;4.27;2.40;;;24.30;56.60;;;;;;5021196;28;20494;-46
2023/07/30 10:44:35;;;;;;;2.30;2.10;;;24.40;55.40;;;;;;5030225;28;20447;-47
2023/07/30 10:47:02;;;;;;;3.37;2.10;;;24.50;55.70;;;;;;5029050;28;20448;-45
2023/07/30 10:49:28;;;;;;;2.30;1.93;;;24.60;55.80;;;;;;5028175;28;20435;-47
2023/07/30 10:51:57;;;;;;;2.83;2.50;;;24.70;54.70;;;;;;5032802;28;20493;-46
2023/07/30 10:54:22;;;;;;;5.33;2.87;;;25.00;55.20;;;;;;5035828;28;20256;-45
2023/07/30 10:56:48;;;;;;;2.30;2.10;;;25.20;55.50;;;;;;5023298;28;21376;-46
2023/07/30 10:59:15;;;;;;;4.77;2.50;;;25.10;53.50;;;;;;5031380;28;20551;-46
2023/07/30 11:01:43;;;;;;;2.30;2.10;;;25.40;55.20;;;;;;5021970;28;20295;-47
2023/07/30 11:04:19;;;;;;;1.93;1.83;;;25.20;53.40;;;;;;5027123;28;20443;-46
2023/07/30 11:06:49;;;;;;;3.13;2.40;;;25.30;54.70;;;;;;5024431;28;20436;-45
2023/07/30 11:09:23;;;;;;;2.50;2.10;;;25.60;54.00;;;;;;5026723;28;20467;-45
2023/07/30 11:11:50;;;;;;;3.70;2.33;;;26.00;53.70;;;;;;5030914;28;20447;-45
2023/07/30 11:14:20;;;;;;;3.67;2.33;;;26.20;53.00;;;;;;5016941;28;20773;-45
2023/07/30 11:16:54;;;;;;;2.83;2.40;;;26.40;51.70;;;;;;5025293;28;20479;-46
2023/07/30 11:19:20;;;;;;;3.63;2.63;;;26.40;51.20;;;;;;5029605;28;20443;-45
2023/07/30 11:21:47;;;;;;;2.67;2.30;;;26.30;50.80;;;;;;5024548;28;20474;-47
2023/07/30 11:24:13;;;;;;;6.00;2.30;;;26.50;51.30;;;;;;5027230;28;20452;-46
2023/07/30 11:26:38;;;;;;;3.53;2.23;;;26.50;50.70;;;;;;5021376;28;20839;-45
2023/07/30 11:29:22;;;;;;;2.80;2.03;;;26.20;50.00;;;;;;5022805;28;20199;-48
2023/07/30 11:31:47;;;;;;;1.87;1.77;;;26.10;50.50;;;;;;5017526;28;20228;-46
2023/07/30 11:34:14;;;;;;;1.90;1.80;;;25.90;51.00;;;;;;5018268;28;20459;-46
2023/07/30 11:36:41;;;;;;;2.30;2.10;;;25.80;52.50;;;;;;5026231;28;20225;-48
2023/07/30 11:39:08;;;;;;;2.20;2.00;;;25.90;53.00;;;;;;5029174;28;20436;-48
2023/07/30 11:41:34;;;;;;;3.90;2.37;;;25.70;52.90;;;;;;5022664;28;20443;-48
2023/07/30 11:44:00;;;;;;;2.30;2.10;;;25.60;52.90;;;;;;5023767;28;20593;-47
2023/07/30 11:46:25;;;;;;;2.20;2.00;;;25.60;53.50;;;;;;5027577;28;20558;-51
2023/07/30 11:48:53;;;;;;;2.20;2.07;;;25.60;53.40;;;;;;5025874;28;20239;-45
2023/07/30 11:51:26;;;;;;;2.60;1.90;;;25.90;53.30;;;;;;5046995;28;20715;-49
2023/07/30 11:53:53;;;;;;;2.23;1.80;;;25.70;53.00;;;;;;5025945;28;20591;-48
2023/07/30 11:56:23;;;;;;;1.80;1.50;;;25.90;52.60;;;;;;5027882;28;20968;-46
2023/07/30 11:58:51;;;;;;;1.80;1.70;;;26.20;52.40;;;;;;5028075;28;20439;-49
2023/07/30 12:01:17;;;;;;;2.53;2.07;;;26.40;51.70;;;;;;5031507;28;20424;-45
2023/07/30 12:03:43;;;;;;;2.17;1.97;;;26.40;52.20;;;;;;5030704;28;20423;-46
2023/07/30 12:06:10;;;;;;;2.10;1.90;;;26.20;52.50;;;;;;5024563;28;20941;-50
2023/07/30 12:08:36;;;;;;;2.60;1.90;;;26.30;52.40;;;;;;5036669;28;20533;-49
2023/07/30 12:11:07;;;;;;;2.93;2.00;;;26.50;52.50;;;;;;5029306;28;20578;-46
2023/07/30 12:13:33;;;;;;;2.10;1.80;;;26.80;52.70;;;;;;5027466;28;20728;-45
2023/07/30 12:15:59;;;;;;;2.00;1.90;;;26.80;50.70;;;;;;5018989;28;20590;-50
2023/07/30 12:18:26;;;;;;;1.97;1.87;;;26.70;49.90;;;;;;5025722;28;20193;-47
2023/07/30 12:20:53;;;;;;;2.20;1.87;;;26.60;49.70;;;;;;5017665;28;20862;-47
2023/07/30 12:23:19;;;;;;;2.87;2.60;;;26.60;50.60;;;;;;5014706;28;21223;-50
2023/07/30 12:25:46;;;;;;;2.40;2.20;;;27.00;50.90;;;;;;5037474;28;20427;-45
2023/07/30 12:28:12;;;;;;;2.30;2.10;;;27.40;49.70;;;;;;5045090;28;20447;-45
2023/07/30 12:30:37;;;;;;;17.53;3.23;;;27.50;49.60;;;;;;5026727;28;20769;-46
2023/07/30 12:33:04;;;;;;;2.17;2.00;;;27.80;49.50;;;;;;5018904;28;20197;-46
2023/07/30 12:35:30;;;;;;;3.37;1.90;;;27.70;49.50;;;;;;5026851;28;20307;-48
2023/07/30 12:37:56;;;;;;;2.40;2.10;;;27.90;49.10;;;;;;5023998;28;20444;-45
2023/07/30 12:40:22;;;;;;;3.47;2.50;;;27.90;48.40;;;;;;5032921;28;20436;-46
2023/07/30 12:42:48;;;;;;;2.00;1.70;;;27.80;47.10;;;;;;5025319;28;20818;-51
2023/07/30 12:45:13;;;;;;;3.10;1.80;;;27.60;47.90;;;;;;5027995;28;20660;-47